Terminal Aerodrome Forecast
Issued by NWS

Home | Current Version | Previous Version | Text Only | Print | Product List | Glossary On
Versions: 1 2 3 4 5 6 7 8 9 10 11 12 13 14 15 16 17 18
000
FTUS41 KCAR 301720
TAFBHB
TAF
KBHB 301720Z 3018/0118 09005KT P6SM SCT200
     FM010000 05005KT P6SM BKN150
     FM011700 08005KT P6SM BKN030=

USA.gov is the U.S. government's official web portal to all federal, state and local government web resources and services.